Terminal Aerodrome Forecast
Issued by NWS Grand Forks, ND

Home | Current Version | Previous Version | Graphics & Text | Print | Product List | Glossary On
Versions: 1 2 3 4 5 6 7 8 9 10 11 12 13 14 15 16
796
FTUS43 KFGF 240031 RRA
TAFGFK
TAF
KGFK 240031Z 2401/2424 32015G24KT P6SM SCT040 BKN060
     FM240200 31011KT P6SM BKN050
     FM240500 31010KT P6SM BKN035
     FM241000 31011KT P6SM BKN025
     FM241500 31013G22KT P6SM BKN030=

USA.gov is the U.S. government's official web portal to all federal, state and local government web resources and services.